Latest Weather Observations for Tuggeranong

IDN60801

Issued at 11:02 pm EST Monday 24 April 2017 (issued every 30 minutes, with the page automatically refreshed every 10 minutes)

About weather observations | Map of weather stations | Latest weather observations for NSW | Other Formats
Station Details ID: 070339 Name: TUGGERANONG (ISABELLA PLAINS) AWS Lat: -35.42 Lon: 149.09 Height: 586.7 m
Data from the previous 72 hours. | See also: Recent months at Tuggeranong
Date/Time
EST
Temp
°C
App
Temp
°C
Dew
Point
°C
Rel
Hum
%
Delta-T
°C
Wind Press
QNH
hPa
Press
MSL
hPa
Rain since
9am
mm
Dir  Spd
km/h
Gust
km/h
Spd
kts
Gust
kts
24/11:00pm 12.2 12.6 11.1 93 0.6 CALM 0 0 0 0 1018.3 1017.3 0.0
24/10:30pm 12.3 12.8 11.5 95 0.4 CALM 0 0 0 0 1018.6 1017.7 0.0
24/10:00pm 12.0 12.2 10.7 92 0.7 CALM 0 0 0 0 1018.9 1018.0 0.0
24/09:30pm 12.4 12.9 11.5 94 0.5 CALM 0 0 0 0 1018.9 1018.0 0.0
24/09:00pm 12.0 12.2 10.6 91 0.7 CALM 0 0 0 0 1019.0 1018.1 0.0
24/08:30pm 12.8 13.0 10.5 86 1.2 CALM 0 0 0 0 1018.9 1018.0 0.0
24/08:00pm 13.6 13.9 11.0 84 1.4 CALM 0 0 0 0 1018.8 1017.9 0.0
24/07:30pm 14.2 13.4 11.2 82 1.6 E 6 7 3 4 1018.9 1018.0 0.0
24/07:00pm 14.8 14.6 11.8 82 1.7 ENE 4 9 2 5 1019.0 1018.1 0.0
24/06:30pm 15.0 15.6 12.0 82 1.7 CALM 0 0 0 0 1018.9 1018.0 0.0
24/06:00pm 16.0 16.7 12.2 78 2.1 CALM 0 0 0 0 1018.6 1017.7 0.0
24/05:30pm 16.9 17.6 12.2 74 2.7 CALM 0 0 0 0 1018.5 1017.6 0.0
24/05:00pm 18.7 19.2 11.5 63 4.1 CALM 0 0 0 0 1018.4 1017.5 0.0
24/04:30pm 19.8 19.3 12.1 61 4.4 W 6 9 3 5 1018.3 1017.3 0.0
24/04:00pm 20.2 19.5 11.4 57 5.0 NW 6 9 3 5 1018.4 1017.5 0.0
24/03:30pm 20.3 19.0 11.2 56 5.1 WNW 9 13 5 7 1018.6 1017.7 0.0
24/03:00pm 20.3 18.8 10.7 54 5.4 NNW 9 15 5 8 1018.7 1017.8 0.0
24/02:30pm 21.3 19.2 11.1 52 5.8 N 13 20 7 11 1018.8 1017.9 0.0
24/02:00pm 21.1 18.9 10.9 52 5.7 NNW 13 20 7 11 1019.0 1018.1 0.0
24/01:30pm 20.3 18.3 11.5 57 5.0 NW 13 20 7 11 1019.5 1018.5 0.0
24/01:00pm 20.4 19.2 11.6 57 5.0 NNW 9 17 5 9 1019.9 1019.0 0.0
24/12:30pm 19.8 18.7 11.8 60 4.6 NNW 9 15 5 8 1020.5 1019.6 0.0
24/12:00pm 18.8 18.1 11.9 64 3.9 NNW 7 13 4 7 1021.2 1020.2 0.0
24/11:30am 18.2 18.6 12.6 70 3.2 NNE 2 11 1 6 1021.9 1021.0 0.0
24/11:00am 16.4 16.4 12.4 77 2.3 NE 4 9 2 5 1022.5 1021.6 0.0
24/10:30am 15.1 15.5 12.6 85 1.4 NE 2 7 1 4 1023.2 1022.3 0.0
24/10:00am 13.4 14.3 12.9 97 0.3 CALM 0 0 0 0 1023.6 1022.7 0.0
24/09:30am 12.5 13.3 12.5 100 0.0 CALM 0 0 0 0 1023.8 1022.9 0.0
24/09:00am 12.0 12.2 12.0 100 0.0 W 2 6 1 3 1024.0 1023.1 0.0
24/08:30am 11.1 11.5 11.1 100 0.0 CALM 0 0 0 0 1024.1 1023.2 0.0
24/08:00am 10.5 10.3 10.5 100 0.0 W 2 7 1 4 1024.1 1023.2 0.0
24/07:30am 9.8 9.8 9.8 100 0.0 CALM 0 0 0 0 1023.8 1022.9 0.0
24/07:00am 8.8 8.5 8.8 100 0.0 CALM 0 0 0 0 1023.8 1022.9 0.0
24/06:30am 8.5 8.2 8.5 100 0.0 CALM 0 0 0 0 1023.6 1022.7 0.0
24/06:00am 8.0 7.5 7.9 99 0.0 CALM 0 0 0 0 1023.5 1022.6 0.0
24/05:30am 7.7 7.1 7.6 99 0.0 CALM 0 0 0 0 1023.3 1022.4 0.0
24/05:00am 8.4 8.0 8.3 99 0.0 CALM 0 0 0 0 1023.1 1022.2 0.0
24/04:30am 8.4 8.0 8.3 99 0.0 CALM 0 0 0 0 1022.9 1022.0 0.0
24/04:00am 9.1 8.9 9.0 99 0.1 CALM 0 0 0 0 1022.7 1021.8 0.0
24/03:30am 9.6 9.4 9.1 97 0.3 CALM 0 0 0 0 1023.0 1022.1 0.0
24/03:00am 10.2 10.3 10.1 99 0.1 CALM 0 0 0 0 1023.1 1022.2 0.0
24/02:30am 10.6 10.7 10.0 96 0.3 CALM 0 0 0 0 1023.3 1022.4 0.0
24/02:00am 11.1 11.2 10.3 95 0.4 CALM 0 0 0 0 1023.5 1022.6 0.0
24/01:30am 12.2 12.6 11.3 94 0.5 CALM 0 0 0 0 1023.8 1022.9 0.0
24/01:00am 12.5 12.9 11.2 92 0.7 CALM 0 0 0 0 1024.0 1023.1 0.0
24/12:30am 13.0 13.4 11.4 90 0.9 CALM 0 0 0 0 1024.1 1023.2 0.0
24/12:00am 13.6 14.0 11.1 85 1.4 CALM 0 0 0 0 1024.2 1023.3 0.0
 
Date/Time
EST
Temp
°C
App
Temp
°C
Dew
Point
°C
Rel
Hum
%
Delta-T
°C
Wind Press
QNH
hPa
Press
MSL
hPa
Rain since
9am
mm
Dir  Spd
km/h
Gust
km/h
Spd
kts
Gust
kts
23/11:30pm 14.4 14.9 11.6 83 1.5 CALM 0 0 0 0 1024.4 1023.6 0.0
23/11:00pm 14.9 15.5 11.9 82 1.7 CALM 0 0 0 0 1024.6 1023.8 0.0
23/10:30pm 15.3 15.9 11.9 80 1.9 CALM 0 0 0 0 1024.8 1023.9 0.0
23/10:00pm 15.4 15.9 11.6 78 2.1 CALM 0 0 0 0 1024.9 1024.0 0.0
23/09:30pm 15.6 16.1 11.6 77 2.2 CALM 0 0 0 0 1025.0 1024.1 0.0
23/09:00pm 15.6 16.0 11.2 75 2.4 CALM 0 0 0 0 1024.9 1024.0 0.0
23/08:30pm 16.1 16.5 11.3 73 2.7 CALM 0 0 0 0 1024.6 1023.8 0.0
23/08:00pm 16.0 16.1 11.4 74 2.5 SSW 2 6 1 3 1024.3 1023.5 0.0
23/07:30pm 16.5 15.6 11.2 71 2.9 ESE 7 11 4 6 1023.9 1023.0 0.0
23/07:00pm 17.1 16.2 11.2 68 3.3 SE 7 13 4 7 1023.6 1022.7 0.0
23/06:30pm 17.7 16.7 11.0 65 3.7 E 7 9 4 5 1023.3 1022.4 0.0
23/06:00pm 18.3 16.9 10.9 62 4.1 E 9 11 5 6 1023.1 1022.2 0.0
23/05:30pm 18.4 18.6 11.9 66 3.7 ENE 2 7 1 4 1022.7 1021.8 0.0
23/05:00pm 19.0 19.4 11.3 61 4.3 CALM 0 6 0 3 1022.5 1021.6 0.0
23/04:30pm 19.2 18.2 11.0 59 4.6 WNW 7 11 4 6 1022.4 1021.5 0.0
23/04:00pm 19.7 17.5 10.7 56 5.0 WNW 13 19 7 10 1022.2 1021.3 0.0
23/03:30pm 20.2 19.1 10.6 54 5.4 SW 7 9 4 5 1022.2 1021.3 0.0
23/03:00pm 20.4 18.8 8.7 47 6.3 WSW 7 11 4 6 1022.1 1021.2 0.0
23/02:30pm 22.0 20.6 9.5 45 6.9 WSW 7 13 4 7 1022.1 1021.2 0.0
23/02:00pm 21.6 21.2 9.8 47 6.5 S 2 9 1 5 1022.3 1021.4 0.0
23/01:30pm 20.9 19.6 9.8 49 6.1 S 7 11 4 6 1022.5 1021.6 0.0
23/01:00pm 21.3 21.3 11.3 53 5.7 E 2 7 1 4 1023.0 1022.1 0.0
23/12:30pm 20.2 19.0 9.7 51 5.8 W 6 11 3 6 1023.5 1022.6 0.0
23/12:00pm 19.4 17.8 10.1 55 5.1 SSW 9 15 5 8 1024.1 1023.2 0.0
23/11:30am 18.3 17.2 9.9 58 4.6 WSW 6 11 3 6 1024.5 1023.7 0.0
23/11:00am 17.8 16.7 10.7 63 3.9 WNW 7 11 4 6 1025.2 1024.3 0.0
23/10:30am 16.4 15.3 10.0 66 3.5 WNW 6 11 3 6 1025.5 1024.6 0.0
23/10:00am 15.0 13.7 10.0 72 2.7 W 7 11 4 6 1025.8 1025.0 0.0
23/09:30am 14.3 13.2 9.9 75 2.3 NW 6 7 3 4 1025.9 1025.1 0.0
23/09:00am 13.0 12.9 9.4 79 1.9 CALM 0 6 0 3 1025.9 1025.1 0.0
23/08:30am 11.6 11.3 8.6 82 1.5 CALM 0 0 0 0 1025.8 1025.0 0.0
23/08:00am 10.0 9.7 8.8 92 0.6 CALM 0 6 0 3 1025.7 1024.8 0.0
23/07:30am 8.7 8.4 8.6 99 0.1 CALM 0 0 0 0 1025.5 1024.6 0.0
23/07:00am 5.8 4.8 5.7 99 0.0 CALM 0 4 0 2 1025.3 1024.4 0.0
23/06:30am 6.0 5.1 5.9 99 0.0 CALM 0 0 0 0 1025.0 1024.1 0.0
23/06:00am 6.3 5.4 6.2 99 0.0 CALM 0 0 0 0 1024.8 1023.9 0.0
23/05:30am 6.4 5.6 6.3 99 0.0 CALM 0 0 0 0 1024.6 1023.8 0.0
23/05:00am 6.9 6.2 6.8 99 0.0 CALM 0 0 0 0 1024.5 1023.7 0.0
23/04:30am 7.0 6.3 6.9 99 0.0 CALM 0 0 0 0 1024.2 1023.3 0.0
23/04:00am 7.4 6.4 7.3 99 0.0 ESE 2 6 1 3 1023.9 1023.0 0.0
23/03:30am 7.9 7.0 7.9 100 0.0 NW 2 7 1 4 1024.1 1023.2 0.0
23/03:00am 7.5 6.9 7.4 99 0.0 CALM 0 0 0 0 1024.1 1023.2 0.0
23/02:30am 8.0 7.5 7.9 99 0.0 CALM 0 0 0 0 1024.4 1023.6 0.0
23/02:00am 8.3 7.9 8.2 99 0.0 CALM 0 0 0 0 1024.8 1023.9 0.0
23/01:30am 8.2 7.8 8.1 99 0.0 CALM 0 0 0 0 1024.8 1023.9 0.0
23/01:00am 8.9 8.6 8.8 99 0.1 CALM 0 0 0 0 1024.6 1023.8 0.0
23/12:30am 9.2 8.9 8.7 97 0.3 CALM 0 0 0 0 1024.9 1024.0 0.0
23/12:00am 9.7 9.2 9.2 97 0.3 NE 2 7 1 4 1025.1 1024.2 0.0
 
Date/Time
EST
Temp
°C
App
Temp
°C
Dew
Point
°C
Rel
Hum
%
Delta-T
°C
Wind Press
QNH
hPa
Press
MSL
hPa
Rain since
9am
mm
Dir  Spd
km/h
Gust
km/h
Spd
kts
Gust
kts
22/11:30pm 10.3 10.3 9.8 97 0.3 CALM 0 0 0 0 1025.2 1024.3 0.0
22/11:00pm 10.5 10.4 9.3 92 0.6 CALM 0 0 0 0 1025.4 1024.5 0.0
22/10:30pm 11.5 11.6 10.2 92 0.7 CALM 0 0 0 0 1025.5 1024.6 0.0
22/10:00pm 11.8 11.9 10.2 90 0.8 CALM 0 2 0 1 1025.4 1024.5 0.0
22/09:30pm 12.6 12.7 10.3 86 1.2 CALM 0 0 0 0 1025.2 1024.3 0.0
22/09:00pm 13.9 14.1 10.7 81 1.7 CALM 0 0 0 0 1025.0 1024.1 0.0
22/08:30pm 14.2 14.4 10.4 78 2.0 CALM 0 0 0 0 1024.9 1024.0 0.0
22/08:00pm 15.5 15.7 10.5 72 2.7 CALM 0 0 0 0 1024.6 1023.8 0.0
22/07:30pm 15.9 15.3 10.4 70 3.0 SE 4 7 2 4 1024.5 1023.7 0.0
22/07:00pm 15.7 15.8 10.2 70 3.0 CALM 0 0 0 0 1024.2 1023.3 0.0
22/06:30pm 16.9 15.6 9.3 61 4.1 N 6 7 3 4 1024.1 1023.2 0.0
22/06:00pm 17.7 17.2 9.3 58 4.5 NNW 2 7 1 4 1023.9 1023.0 0.0
22/05:30pm 18.4 16.8 8.7 53 5.2 NW 7 11 4 6 1023.6 1022.7 0.0
22/05:00pm 19.0 17.1 8.9 52 5.4 NW 9 15 5 8 1023.5 1022.6 0.0
22/04:30pm 19.7 17.8 9.0 50 5.8 NW 9 15 5 8 1023.4 1022.5 0.0
22/04:00pm 20.5 17.6 8.2 45 6.6 NW 13 19 7 10 1023.2 1022.3 0.0
22/03:30pm 20.2 16.9 7.9 45 6.5 NW 15 22 8 12 1023.2 1022.3 0.0
22/03:00pm 21.3 18.5 8.6 44 6.9 NW 13 22 7 12 1023.2 1022.3 0.0
22/02:30pm 20.7 18.5 9.3 48 6.2 NW 11 19 6 10 1023.3 1022.4 0.0
22/02:00pm 20.5 19.4 10.6 53 5.5 N 7 13 4 7 1023.5 1022.6 0.0
22/01:30pm 20.3 19.6 12.0 59 4.8 N 7 17 4 9 1023.8 1022.9 0.0
22/01:00pm 18.6 17.7 11.2 62 4.1 N 7 13 4 7 1024.3 1023.5 0.0
22/12:30pm 19.1 18.0 10.6 58 4.7 NNW 7 13 4 7 1024.8 1023.9 0.0
22/12:00pm 18.1 17.3 11.0 63 3.9 NE 6 7 3 4 1025.3 1024.4 0.0
22/11:30am 16.8 16.5 11.3 70 3.1 NW 4 7 2 4 1025.9 1025.1 0.0
22/11:00am 15.5 15.2 12.6 83 1.6 NW 6 7 3 4 1026.3 1025.5 0.0
22/10:30am 15.1 14.8 12.6 85 1.4 SW 6 7 3 4 1026.8 1025.9 0.0
22/10:00am 14.5 13.7 11.8 84 1.5 SSW 7 9 4 5 1026.7 1025.8 0.0
22/09:30am 14.2 15.1 12.8 91 0.8 CALM 0 0 0 0 1027.2 1026.3 0.0
22/09:00am 13.7 13.4 11.6 87 1.1 SSE 4 7 2 4 1027.3 1026.5 1.8
22/08:30am 13.3 12.9 12.5 95 0.4 S 6 11 3 6 1027.3 1026.5 1.8
22/08:00am 13.1 12.3 12.9 99 0.1 SSW 9 13 5 7 1027.4 1026.6 1.4
22/07:30am 12.7 13.5 12.5 99 0.1 CALM 0 0 0 0 1027.0 1026.1 0.6
22/07:00am 12.5 12.8 12.3 99 0.1 SE 2 7 1 4 1026.7 1025.8 0.4
22/06:30am 12.6 11.8 11.8 95 0.4 NW 7 11 4 6 1026.3 1025.5 0.0
22/06:00am 12.2 11.7 12.0 99 0.1 SW 6 7 3 4 1025.7 1024.8 0.0
22/05:30am 12.2 12.1 12.0 99 0.1 WNW 4 6 2 3 1025.5 1024.6 0.0
22/05:00am 12.0 12.5 11.7 98 0.2 CALM 0 0 0 0 1025.4 1024.5 0.0
22/04:30am 12.3 13.0 12.1 99 0.1 CALM 0 0 0 0 1025.3 1024.4 0.0
22/04:00am 12.4 12.7 12.2 99 0.1 NE 2 6 1 3 1025.3 1024.4 0.0
22/03:30am 11.9 12.1 11.7 99 0.1 SW 2 9 1 5 1025.3 1024.4 0.0
22/03:00am 12.6 12.9 12.3 98 0.2 ENE 2 7 1 4 1025.3 1024.4 0.0
22/02:30am 12.5 13.1 12.0 97 0.3 CALM 0 0 0 0 1025.7 1024.8 0.0
22/02:00am 12.3 12.9 11.8 97 0.3 CALM 0 0 0 0 1025.8 1025.0 0.0
22/01:30am 12.5 13.1 12.0 97 0.3 CALM 0 0 0 0 1025.9 1025.1 0.0
22/01:00am 12.7 13.3 11.8 94 0.5 CALM 0 0 0 0 1026.2 1025.4 0.0
22/12:30am 12.5 11.8 11.9 96 0.3 SSW 7 9 4 5 1026.0 1025.2 0.0
22/12:00am 12.7 13.3 11.8 94 0.5 CALM 0 0 0 0 1026.4 1025.6 0.0
 
Date/Time
EST
Temp
°C
App
Temp
°C
Dew
Point
°C
Rel
Hum
%
Delta-T
°C
Wind Press
QNH
hPa
Press
MSL
hPa
Rain since
9am
mm
Dir  Spd
km/h
Gust
km/h
Spd
kts
Gust
kts
21/11:30pm 13.2 13.8 11.8 91 0.8 CALM 0 0 0 0 1026.1 1025.3 0.0

Other Formats:

Comma delimited format used in spreadsheet applications
http://www.bom.gov.au/fwo/IDN60801/IDN60801.94925.axf

JavaScript Object Notation format (JSON) in row-major order
http://www.bom.gov.au/fwo/IDN60801/IDN60801.94925.json